Latest Weather Observations for Lameroo AWS

IDS60801

Issued at 7:35 am CDT Saturday 25 October 2014 (issued every 30 minutes, with the page automatically refreshed every 10 minutes)

About weather observations | Map of weather stations | Latest weather observations for SA | Other Formats
Station Details ID: 025562 Name: AUSTIN PLAINS Lat: -35.38 Lon: 140.54 Height: 110.08 m
Data from the previous 72 hours. | See also: Recent months at Lameroo AWS
Date/Time
CDT
Temp
°C
App
Temp
°C
Dew
Point
Rel
Hum
%
Delta-T
°C
Wind Press
QNH
hPa
Press
MSL
hPa
Rain
since 9 am
mm
Dir
 
Spd
km/h
Gust
km/h
Spd
kts
Gust
kts
25/07:30am 12.2 9.5 10.3 88 1.0 SSW 15 19 8 10 1016.6 1016.5 0.0
25/07:00am 11.3 8.9 9.9 91 0.7 S 13 17 7 9 1016.1 1016.0 0.0
25/06:30am 10.9 8.4 9.7 92 0.6 S 13 15 7 8 1014.9 1014.8 0.0
25/06:00am 11.2 9.1 9.6 90 0.8 S 11 15 6 8 1015.0 1014.9 0.0
25/05:30am 11.6 9.5 9.9 89 0.9 SSE 11 15 6 8 1014.5 1014.4 0.0
25/05:00am 12.3 10.3 10.2 87 1.1 S 11 15 6 8 1014.7 1014.6 0.0
25/04:30am 12.7 10.8 10.6 87 1.1 S 11 15 6 8 1014.5 1014.4 0.0
25/04:00am 12.5 9.9 10.6 88 1.0 S 15 17 8 9 1014.0 1013.8 0.0
25/03:30am 12.4 10.4 10.3 87 1.1 S 11 13 6 7 1014.4 1014.2 0.0
25/03:00am 12.8 11.2 10.2 84 1.3 S 9 11 5 6 1014.7 1014.6 0.0
25/02:30am 13.8 12.7 10.8 82 1.6 SSE 7 9 4 5 1014.7 1014.6 0.0
25/02:00am 14.4 11.9 11.2 81 1.7 S 15 20 8 11 1014.7 1014.6 0.0
25/01:30am 14.7 12.3 11.3 80 1.8 S 15 19 8 10 1014.8 1014.7 0.0
25/01:00am 15.1 13.0 11.3 78 2.0 S 13 17 7 9 1015.0 1014.9 0.0
25/12:30am 15.8 13.3 11.2 74 2.5 S 15 20 8 11 1015.3 1015.2 0.0
25/12:00am 16.8 14.3 11.1 69 3.1 S 15 24 8 13 1015.0 1014.9 0.0
 
Date/Time
CDT
Temp
°C
App
Temp
°C
Dew
Point
Rel
Hum
%
Delta-T
°C
Wind Press
QNH
hPa
Press
MSL
hPa
Rain
since 9 am
mm
Dir
 
Spd
km/h
Gust
km/h
Spd
kts
Gust
kts
24/11:30pm 17.3 14.3 10.7 65 3.5 S 17 19 9 10 1015.4 1015.3 0.0
24/11:00pm 18.3 15.5 9.9 58 4.5 S 15 19 8 10 1015.1 1015.0 0.0
24/10:30pm 19.5 15.8 9.4 52 5.4 S 19 24 10 13 1014.8 1014.7 0.0
24/10:00pm 20.0 16.1 9.6 51 5.6 S 20 28 11 15 1015.0 1014.9 0.0
24/09:30pm 21.1 16.7 9.0 46 6.4 S 22 30 12 16 1014.7 1014.6 0.0
24/09:00pm 22.2 17.8 7.6 39 7.6 S 20 24 11 13 1014.5 1014.4 0.0
24/08:30pm 23.4 19.2 5.8 32 9.0 S 17 20 9 11 1014.0 1013.8 0.0
24/08:00pm 23.9 19.3 3.8 27 9.9 S 17 20 9 11 1013.4 1013.3 0.0
24/07:30pm 25.2 20.0 3.8 25 10.6 S 20 28 11 15 1013.5 1013.4 0.0
24/07:00pm 27.2 21.9 4.9 24 11.4 S 22 28 12 15 1013.0 1012.9 0.0
24/06:30pm 29.9 25.5 4.5 20 13.2 SSW 17 22 9 12 1012.5 1012.4 0.0
24/06:00pm 30.7 27.4 4.4 19 13.7 SSW 11 15 6 8 1012.1 1012.0 0.0
24/05:30pm 31.5 28.9 4.3 18 14.2 WSW 7 20 4 11 1012.1 1012.0 0.0
24/05:00pm 31.5 28.2 4.3 18 14.2 WSW 11 20 6 11 1012.2 1012.1 0.0
24/04:30pm 31.9 27.5 4.6 18 14.3 WSW 17 32 9 17 1012.3 1012.2 0.0
24/04:00pm 31.9 28.2 4.6 18 14.3 WSW 13 22 7 12 1012.6 1012.5 0.0
24/03:30pm 32.0 27.0 4.7 18 14.4 W 20 30 11 16 1012.7 1012.6 0.0
24/03:00pm 31.6 26.8 4.4 18 14.2 SW 19 30 10 16 1012.8 1012.7 0.0
24/02:30pm 31.4 28.0 4.2 18 14.1 SW 11 26 6 14 1012.8 1012.7 0.0
24/02:00pm 30.0 25.2 4.6 20 13.2 SW 19 30 10 16 1013.3 1013.2 0.0
24/01:30pm 29.6 24.3 5.0 21 12.8 SW 22 32 12 17 1013.8 1013.6 0.0
24/01:00pm 28.9 22.3 4.4 21 12.6 WSW 28 43 15 23 1014.0 1013.8 0.0
24/12:30pm 28.3 22.8 5.8 24 11.8 WSW 24 37 13 20 1014.1 1013.9 0.0
24/12:00pm 27.8 22.8 4.8 23 11.8 W 20 32 11 17 1014.5 1014.4 0.0
24/11:30am 25.6 22.2 5.8 28 10.2 WSW 13 20 7 11 1014.6 1014.5 0.0
24/11:00am 24.4 20.3 6.2 31 9.4 WSW 17 26 9 14 1014.9 1014.8 0.0
24/10:30am 22.4 18.7 8.1 40 7.5 WSW 17 24 9 13 1015.0 1014.9 0.0
24/10:00am 19.9 18.0 10.6 55 5.1 WSW 11 15 6 8 1015.0 1014.9 0.0
24/09:30am 17.8 16.2 11.6 67 3.4 W 11 17 6 9 1015.1 1015.0 0.0
24/09:00am 15.1 14.0 11.9 81 1.7 W 9 11 5 6 1014.9 1014.8 0.0
24/08:30am 13.0 11.8 11.7 92 0.7 W 9 13 5 7 1014.8 1014.7 0.0
24/08:00am 11.5 11.2 11.5 100 0.0 NW 4 6 2 3 1014.0 1013.8 0.0
24/07:30am 10.7 10.6 10.7 100 0.0 WNW 2 6 1 3 1013.5 1013.4 0.0
24/07:00am 8.7 7.7 8.7 100 0.0 W 4 7 2 4 1013.2 1013.1 0.0
24/06:30am 7.8 6.5 7.8 100 0.0 WNW 4 9 2 5 1013.0 1012.9 0.0
24/06:00am 8.7 8.4 8.7 100 0.0 CALM 0 0 0 0 1012.4 1012.3 0.0
24/05:30am 9.1 8.9 9.1 100 0.0 CALM 0 0 0 0 1012.3 1012.2 0.0
24/05:00am 10.1 10.2 10.1 100 0.0 CALM 0 0 0 0 1012.2 1012.1 0.0
24/04:30am 10.3 9.3 10.3 100 0.0 WNW 6 7 3 4 1012.5 1012.4 0.0
24/04:00am 10.6 9.7 10.6 100 0.0 WSW 6 7 3 4 1012.5 1012.4 0.0
24/03:30am 11.3 9.6 11.3 100 0.0 WSW 11 15 6 8 1012.6 1012.5 0.0
24/03:00am 11.4 9.8 11.4 100 0.0 WSW 11 15 6 8 1013.1 1013.0 0.0
24/02:30am 11.8 9.5 11.8 100 0.0 WSW 15 19 8 10 1013.5 1013.4 0.0
24/02:00am 11.8 9.0 11.5 98 0.2 WSW 17 22 9 12 1013.9 1013.7 0.0
24/01:30am 11.2 9.9 9.8 91 0.7 WSW 7 9 4 5 1013.8 1013.6 0.0
24/01:00am 11.3 9.9 9.6 89 0.9 WSW 7 7 4 4 1014.1 1013.9 0.0
24/12:30am 12.3 10.4 10.5 89 0.9 WSW 11 13 6 7 1014.5 1014.4 0.0
24/12:00am 12.8 11.0 10.7 87 1.1 WSW 11 15 6 8 1014.5 1014.4 0.0
 
Date/Time
CDT
Temp
°C
App
Temp
°C
Dew
Point
Rel
Hum
%
Delta-T
°C
Wind Press
QNH
hPa
Press
MSL
hPa
Rain
since 9 am
mm
Dir
 
Spd
km/h
Gust
km/h
Spd
kts
Gust
kts
23/11:30pm 13.7 11.9 11.0 84 1.4 WSW 11 15 6 8 1014.7 1014.6 0.0
23/11:00pm 14.4 12.8 11.4 82 1.6 WSW 11 15 6 8 1014.8 1014.7 0.0
23/10:30pm 14.9 12.8 11.3 79 1.9 SW 13 15 7 8 1014.8 1014.7 0.0
23/10:00pm 16.1 14.1 11.5 74 2.5 SW 13 17 7 9 1014.9 1014.8 0.0
23/09:30pm 17.2 14.9 11.7 70 3.0 WSW 15 17 8 9 1015.0 1014.9 0.0
23/09:00pm 18.3 15.6 11.8 66 3.6 WSW 17 22 9 12 1014.7 1014.6 0.0
23/08:30pm 19.8 16.3 12.1 61 4.3 WSW 22 30 12 16 1014.4 1014.2 0.0
23/08:00pm 21.9 17.8 11.6 52 5.8 WSW 24 32 13 17 1014.0 1013.8 0.0
23/07:30pm 23.7 20.5 11.4 46 6.9 SW 19 24 10 13 1013.3 1013.2 0.0
23/07:00pm 25.9 22.9 9.3 35 9.1 WSW 15 20 8 11 1012.7 1012.6 0.0
23/06:30pm 27.5 23.5 8.9 31 10.2 WSW 20 26 11 14 1012.6 1012.5 0.0
23/06:00pm 28.3 24.9 9.1 30 10.7 WSW 17 24 9 13 1012.3 1012.2 0.0
23/05:30pm 28.7 25.4 9.4 30 10.8 WSW 17 24 9 13 1012.3 1012.2 0.0
23/05:00pm 29.4 26.5 9.5 29 11.2 SW 15 28 8 15 1012.4 1012.3 0.0
23/04:30pm 29.8 27.6 9.3 28 11.5 SW 11 22 6 12 1012.4 1012.3 0.0
23/04:00pm 29.7 27.3 8.7 27 11.7 SSW 11 19 6 10 1012.6 1012.5 0.0
23/03:30pm 30.0 28.1 9.0 27 11.7 SW 9 15 5 8 1012.9 1012.8 0.0
23/03:00pm 29.1 27.6 9.3 29 11.1 WSW 7 15 4 8 1013.2 1013.1 0.0
23/02:30pm 28.4 27.1 9.2 30 10.7 SW 6 15 3 8 1013.6 1013.5 0.0
23/02:00pm 27.3 26.0 9.2 32 10.0 WNW 6 11 3 6 1014.1 1013.9 0.0
23/01:30pm 26.7 24.5 9.5 34 9.5 SW 11 20 6 11 1014.5 1014.4 0.0
23/01:00pm 25.5 23.7 9.3 36 8.9 SSW 9 17 5 9 1015.1 1015.0 0.0
23/12:30pm 25.0 23.9 10.5 40 8.1 SSW 7 17 4 9 1015.4 1015.3 0.0
23/12:00pm 23.6 22.4 10.3 43 7.3 S 7 17 4 9 1015.8 1015.7 0.0
23/11:30am 21.9 20.6 10.1 47 6.4 S 7 15 4 8 1016.4 1016.3 0.0
23/11:00am 21.0 19.4 10.2 50 5.9 S 9 19 5 10 1016.7 1016.6 0.0
23/10:30am 19.6 17.6 10.3 55 5.0 S 11 19 6 10 1017.0 1016.9 0.0
23/10:00am 18.6 16.4 10.7 60 4.3 S 13 20 7 11 1017.1 1017.0 0.0
23/09:30am 17.7 15.5 10.8 64 3.7 S 13 20 7 11 1017.5 1017.4 0.0
23/09:00am 16.0 13.3 10.5 70 2.9 S 15 19 8 10 1017.6 1017.5 0.0
23/08:30am 15.0 12.0 10.6 75 2.3 S 17 24 9 13 1017.7 1017.6 0.0
23/08:00am 14.1 10.6 10.3 78 2.0 S 19 24 10 13 1017.7 1017.6 0.0
23/07:30am 13.3 10.3 10.5 83 1.5 S 17 22 9 12 1017.7 1017.6 0.0
23/07:00am 12.8 9.3 10.3 85 1.3 S 19 22 10 12 1017.6 1017.5 0.0
23/06:30am 12.5 9.0 10.2 86 1.2 S 19 28 10 15 1017.3 1017.2 0.0
23/06:00am 12.5 9.1 10.4 87 1.1 S 19 28 10 15 1016.9 1016.8 0.0
23/05:30am 12.5 8.9 10.6 88 1.0 S 20 33 11 18 1016.9 1016.8 0.0
23/05:00am 12.5 8.2 10.7 89 0.9 S 24 33 13 18 1016.4 1016.3 0.0
23/04:30am 12.4 8.5 10.8 90 0.8 S 22 30 12 16 1016.5 1016.4 0.0
23/04:00am 12.6 8.4 11.0 90 0.8 S 24 33 13 18 1016.3 1016.2 0.0
23/03:30am 12.1 8.2 10.8 92 0.7 SSW 22 26 12 14 1016.2 1016.1 0.0
23/03:00am 12.0 8.4 10.7 92 0.7 SSW 20 26 11 14 1016.3 1016.2 0.0
23/02:30am 12.3 8.4 10.9 91 0.7 SSW 22 28 12 15 1016.4 1016.3 0.0
23/02:00am 12.6 9.1 11.0 90 0.8 S 20 26 11 14 1016.6 1016.5 0.0
23/01:30am 12.8 9.6 11.2 90 0.8 SSW 19 26 10 14 1016.7 1016.6 0.0
23/01:00am 13.1 9.7 11.3 89 1.0 SSW 20 28 11 15 1017.0 1016.9 0.0
23/12:30am 13.6 10.3 11.5 87 1.1 SSW 20 30 11 16 1017.2 1017.1 0.0
23/12:00am 13.9 10.8 11.6 86 1.2 SW 19 24 10 13 1017.6 1017.5 0.0
 
Date/Time
CDT
Temp
°C
App
Temp
°C
Dew
Point
Rel
Hum
%
Delta-T
°C
Wind Press
QNH
hPa
Press
MSL
hPa
Rain
since 9 am
mm
Dir
 
Spd
km/h
Gust
km/h
Spd
kts
Gust
kts
22/11:30pm 14.0 11.3 11.7 86 1.2 SW 17 20 9 11 1017.8 1017.7 0.0
22/11:00pm 14.3 11.3 11.8 85 1.4 SW 19 22 10 12 1017.8 1017.7 0.0
22/10:30pm 15.0 12.0 12.0 82 1.6 WSW 19 24 10 13 1017.7 1017.6 0.0
22/10:00pm 15.7 13.5 12.1 79 2.0 SW 15 19 8 10 1017.6 1017.5 0.0
22/09:30pm 16.5 13.7 12.5 77 2.2 SW 19 22 10 12 1017.4 1017.3 0.0
22/09:00pm 17.1 14.2 12.4 74 2.6 SW 19 26 10 14 1017.2 1017.1 0.0
22/08:30pm 17.9 14.5 12.6 71 3.0 SW 22 32 12 17 1016.7 1016.6 0.0
22/08:00pm 18.7 14.2 12.7 68 3.4 SW 28 35 15 19 1016.2 1016.1 0.0
22/07:30pm 20.6 16.5 12.8 61 4.4 SW 26 33 14 18 1015.7 1015.6 0.0
22/07:00pm 22.7 17.8 12.6 53 5.8 SW 30 39 16 21 1015.3 1015.2 0.0
22/06:30pm 24.9 19.9 12.2 45 7.3 SW 30 37 16 20 1014.9 1014.8 0.0
22/06:00pm 26.5 20.8 11.0 38 8.8 SW 32 41 17 22 1014.4 1014.2 0.0
22/05:30pm 28.9 22.1 9.1 29 11.0 SW 35 44 19 24 1014.2 1014.0 0.0
22/05:00pm 30.8 23.2 6.0 21 13.2 SSW 35 44 19 24 1014.1 1013.9 0.0
22/04:30pm 31.9 24.8 5.4 19 14.1 SW 32 43 17 23 1014.2 1014.0 0.0
22/04:00pm 32.0 24.9 6.2 20 13.9 SW 33 43 18 23 1014.1 1013.9 0.0
22/03:30pm 32.9 26.3 8.4 22 13.7 WSW 33 46 18 25 1014.0 1013.8 0.0
22/03:00pm 34.9 29.1 7.9 19 15.2 WSW 28 37 15 20 1014.0 1013.8 0.0
22/02:30pm 35.4 28.0 3.9 14 16.7 WSW 32 46 17 25 1014.2 1014.0 0.0
22/02:00pm 36.7 29.8 2.7 12 17.8 WNW 28 37 15 20 1014.3 1014.1 0.0
22/01:30pm 36.7 31.1 0.1 10 18.4 NW 19 28 10 15 1014.6 1014.5 0.0
22/01:00pm 36.3 31.1 2.4 12 17.6 WNW 19 35 10 19 1014.8 1014.7 0.0
22/12:30pm 35.5 29.8 2.9 13 17.0 WNW 22 32 12 17 1015.2 1015.1 0.0
22/12:00pm 35.1 29.9 2.6 13 16.8 W 19 32 10 17 1015.6 1015.5 0.0
22/11:30am 33.1 26.5 2.1 14 15.7 W 26 33 14 18 1015.9 1015.8 0.0
22/11:20am 33.4 26.5 2.3 14 15.9 NW 28 39 15 21 1015.9 1015.8 0.0
22/11:00am 33.1 29.0 2.1 14 15.7 N 13 20 7 11 1016.0 1015.9 0.0
22/10:30am 32.2 27.7 2.3 15 15.1 N 15 24 8 13 1016.8 1016.7 0.0
22/10:00am 31.9 26.4 3.8 17 14.6 NNW 22 28 12 15 1016.9 1016.8 0.0
22/09:30am 30.9 26.6 5.3 20 13.5 NNE 17 26 9 14 1016.6 1016.5 0.0
22/09:00am 29.5 24.8 6.2 23 12.4 NE 20 28 11 15 1016.5 1016.4 -
22/08:30am 27.7 22.6 5.9 25 11.4 NE 22 30 12 16 1016.5 1016.4 -
22/08:00am 26.0 21.2 5.6 27 10.5 NE 20 26 11 14 1016.5 1016.4 -

Other Formats:

Comma delimited format used in spreadsheet applications
http://www.bom.gov.au/fwo/IDS60801/IDS60801.94690.axf

JavaScript Object Notation format (JSON) in row-major order
http://www.bom.gov.au/fwo/IDS60801/IDS60801.94690.json